Time;durP1;ratioP1;P1;durP2;ratioP2;P2;SDS_P1;SDS_P2;PMS_P1;PMS_P2;Temp;Humidity;BMP_temperature;BMP_pressure;BME280_temperature;BME280_humidity;BME280_pressure;Samples;Min_cycle;Max_cycle;Signal;HPM_P1;HPM_P2
2022/02/28 00:01:23;;;;;;;7.18;3.60;;;4.90;99.90;;;5.46;55.44;101990.41;5072246;28;20117;-78
2022/02/28 00:03:56;;;;;;;7.60;3.33;;;4.90;99.90;;;5.37;55.84;101987.41;5070500;28;20025;-78
2022/02/28 00:06:25;;;;;;;5.45;3.28;;;4.80;99.90;;;5.33;56.01;102000.19;5072739;28;20048;-77
2022/02/28 00:08:51;;;;;;;7.00;3.35;;;4.80;99.90;;;5.46;55.39;101995.94;5071766;28;20021;-76
2022/02/28 00:11:17;;;;;;;6.35;3.70;;;4.90;99.90;;;5.51;55.78;101996.72;5071475;28;20032;-77
2022/02/28 00:13:46;;;;;;;7.88;3.78;;;4.90;99.90;;;5.57;55.16;101989.19;5072096;28;20035;-77
2022/02/28 00:16:14;;;;;;;6.82;4.07;;;4.90;99.90;;;5.50;55.46;101991.44;5071535;28;20036;-79
2022/02/28 00:18:41;;;;;;;7.32;4.25;;;4.80;99.90;;;5.42;55.63;101997.63;5071830;28;20032;-78
2022/02/28 00:21:07;;;;;;;6.72;4.07;;;4.70;99.90;;;5.43;55.68;101997.34;5072595;28;20119;-77
2022/02/28 00:23:33;;;;;;;9.38;3.85;;;4.80;99.90;;;5.49;55.29;102007.25;5071193;28;20032;-79
2022/02/28 00:26:01;;;;;;;6.03;3.67;;;4.70;99.90;;;5.37;55.47;102004.03;5073096;28;20074;-79
2022/02/28 00:28:27;;;;;;;5.00;3.30;;;4.70;99.90;;;5.42;55.39;102008.72;5072383;28;20037;-79
2022/02/28 00:30:52;;;;;;;7.57;3.53;;;4.80;99.90;;;5.49;55.08;102014.75;5071396;28;20116;-77
2022/02/28 00:33:24;;;;;;;5.70;3.80;;;4.70;99.90;;;5.49;54.95;102015.56;5070302;28;20098;-77
2022/02/28 00:35:53;;;;;;;9.13;4.30;;;4.70;99.90;;;5.44;54.57;102017.56;5056246;28;20492;-78
2022/02/28 00:38:19;;;;;;;6.82;4.38;;;4.70;99.80;;;5.34;54.86;102018.47;5055015;28;20116;-77
2022/02/28 00:40:44;;;;;;;6.03;3.60;;;4.70;98.90;;;5.31;54.32;102019.91;5074105;28;20029;-77
2022/02/28 00:43:18;;;;;;;4.95;3.53;;;4.70;98.20;;;5.30;54.59;102026.53;5068113;28;20504;-77
2022/02/28 00:45:43;;;;;;;6.35;3.80;;;4.60;99.70;;;5.26;54.28;102014.41;5052128;28;20034;-79
2022/02/28 00:48:11;;;;;;;6.32;3.65;;;4.60;97.80;;;5.41;53.72;102020.91;5037865;28;20060;-77
2022/02/28 00:50:37;;;;;;;6.38;3.92;;;4.70;97.20;;;5.37;54.13;102008.75;5037996;28;20036;-79
2022/02/28 00:53:03;;;;;;;6.90;3.95;;;4.60;98.20;;;5.22;54.24;102029.94;5036138;28;20072;-79
2022/02/28 00:55:35;;;;;;;6.03;3.75;;;4.60;98.40;;;5.22;54.52;102016.09;5037641;28;20136;-77
2022/02/28 00:58:07;;;;;;;6.50;4.15;;;4.60;98.20;;;5.21;54.01;102024.69;5037808;28;20029;-79
2022/02/28 01:00:37;;;;;;;6.75;3.85;;;4.50;98.00;;;5.25;53.54;102020.22;5036197;28;20475;-79
2022/02/28 01:03:09;;;;;;;5.97;4.00;;;4.60;97.00;;;5.30;53.85;102020.16;5037278;28;20036;-78
2022/02/28 01:05:35;;;;;;;6.18;3.85;;;4.60;97.40;;;5.28;53.82;102020.47;5037059;28;20072;-77
2022/02/28 01:08:04;;;;;;;5.53;3.10;;;4.50;98.10;;;5.39;53.50;102014.84;5037231;28;20377;-77
2022/02/28 01:10:34;;;;;;;8.98;3.78;;;4.50;96.80;;;5.35;53.43;102025.69;5035749;28;20060;-79
2022/02/28 01:13:00;;;;;;;6.80;3.45;;;4.50;97.30;;;5.13;54.18;102026.13;5036996;28;20067;-79
2022/02/28 01:15:26;;;;;;;7.38;4.47;;;4.30;99.30;;;5.07;55.12;102023.69;5037401;28;20049;-78
2022/02/28 01:17:52;;;;;;;6.30;3.85;;;4.20;99.90;;;5.03;55.28;102025.38;5035838;28;20056;-79
2022/02/28 01:20:19;;;;;;;8.25;4.50;;;4.00;99.90;;;4.84;55.48;102022.47;5037406;28;20025;-79
2022/02/28 01:22:45;;;;;;;7.15;4.43;;;3.90;99.90;;;4.59;55.71;102026.19;5036893;28;20033;-78
2022/02/28 01:25:12;;;;;;;11.48;4.15;;;3.70;99.90;;;4.43;56.62;102018.28;5036473;28;20033;-79
2022/02/28 01:27:38;;;;;;;8.40;4.38;;;3.60;99.90;;;4.35;57.63;102024.38;5048674;28;20092;-79
2022/02/28 01:30:08;;;;;;;6.05;4.05;;;3.40;99.90;;;4.56;56.16;102025.97;5055085;28;20062;-78
2022/02/28 01:32:36;;;;;;;6.85;3.97;;;3.60;99.90;;;4.49;56.65;102023.50;5055754;28;20029;-79
2022/02/28 01:35:06;;;;;;;6.70;4.18;;;3.50;99.90;;;4.38;56.58;102026.56;5055588;28;20036;-79
2022/02/28 01:37:36;;;;;;;7.45;3.70;;;3.50;99.90;;;4.44;56.93;102030.97;5056793;28;20447;-77
2022/02/28 01:40:09;;;;;;;8.32;4.15;;;3.60;99.90;;;4.30;57.08;102030.78;5055025;28;20029;-78
2022/02/28 01:42:35;;;;;;;6.07;3.83;;;3.50;99.90;;;4.18;57.53;102033.00;5055370;28;20123;-77
2022/02/28 01:45:01;;;;;;;8.55;4.15;;;3.30;99.90;;;4.12;57.65;102028.63;5036142;28;20044;-77
2022/02/28 01:47:27;;;;;;;9.80;4.55;;;3.50;99.90;;;4.23;57.50;102027.47;5035984;28;20372;-78
2022/02/28 01:49:59;;;;;;;6.75;3.92;;;3.50;99.90;;;4.36;56.79;102023.28;5036271;28;20026;-78
2022/02/28 01:52:25;;;;;;;6.47;3.97;;;3.60;99.90;;;4.41;57.34;102018.53;5046708;28;20563;-77
2022/02/28 01:54:51;;;;;;;8.40;4.18;;;3.70;99.90;;;4.45;57.21;102018.81;5054843;28;20056;-76
2022/02/28 01:57:23;;;;;;;6.88;4.28;;;3.80;99.90;;;4.48;56.77;102021.00;5056766;28;20377;-79
2022/02/28 01:59:56;;;;;;;6.05;4.10;;;3.90;99.90;;;4.71;56.42;102031.41;5057759;28;20032;-79
2022/02/28 02:02:22;;;;;;;7.43;4.10;;;4.10;99.90;;;4.76;56.25;102031.34;5055314;28;20488;-78
2022/02/28 02:04:53;;;;;;;6.70;4.35;;;4.00;99.90;;;4.66;56.24;102035.00;5055245;28;20036;-79
2022/02/28 02:07:19;;;;;;;6.68;3.75;;;4.00;99.90;;;4.72;56.20;102024.72;5055892;28;20032;-78
2022/02/28 02:09:45;;;;;;;8.68;4.25;;;4.10;99.90;;;4.66;56.32;102028.66;5056831;28;20037;-79
2022/02/28 02:12:12;;;;;;;8.60;4.20;;;4.10;99.90;;;4.71;56.77;102025.88;5055960;28;20028;-78
2022/02/28 02:14:46;;;;;;;6.32;4.22;;;4.10;99.90;;;4.88;55.38;102029.06;5057179;28;20021;-79
2022/02/28 02:17:15;;;;;;;5.22;4.00;;;4.20;99.90;;;4.94;55.52;102029.88;5056422;28;20036;-79
2022/02/28 02:19:46;;;;;;;6.00;4.45;;;4.30;99.90;;;4.75;55.69;102021.41;5056312;28;20434;-79
2022/02/28 02:22:15;;;;;;;9.38;4.60;;;4.10;99.90;;;4.65;56.37;102016.78;5056230;28;20067;-77
2022/02/28 02:24:41;;;;;;;11.68;4.32;;;4.10;99.90;;;4.77;56.38;102035.78;5042042;28;20065;-77
2022/02/28 02:27:07;;;;;;;6.10;3.92;;;4.10;99.90;;;4.76;56.34;102020.28;5035119;28;20037;-78
2022/02/28 02:29:39;;;;;;;8.70;4.53;;;4.00;99.90;;;4.87;56.09;102027.44;5036201;28;20033;-79
2022/02/28 02:32:11;;;;;;;9.85;4.75;;;4.10;99.90;;;4.87;55.83;102024.66;5036414;28;20426;-79
2022/02/28 02:34:41;;;;;;;8.40;3.97;;;4.10;99.90;;;4.70;56.33;102013.97;5034168;28;20037;-77
2022/02/28 02:37:08;;;;;;;10.40;5.32;;;4.00;99.90;;;4.65;56.73;102016.78;5036616;28;20486;-78
2022/02/28 02:39:43;;;;;;;8.60;4.07;;;3.90;99.90;;;4.69;56.65;102012.28;5034544;28;20032;-78
2022/02/28 02:42:12;;;;;;;8.13;4.28;;;3.90;99.90;;;4.65;56.67;102011.25;5035415;28;20079;-77
2022/02/28 02:44:38;;;;;;;8.50;4.50;;;3.80;99.90;;;4.57;56.64;102008.22;5050408;28;20039;-76
2022/02/28 02:47:07;;;;;;;8.95;4.07;;;3.70;99.90;;;4.45;57.30;102011.34;5054938;28;20024;-77
2022/02/28 02:49:33;;;;;;;5.55;3.75;;;3.60;99.90;;;4.40;56.99;102021.59;5055422;28;20029;-79
2022/02/28 02:52:02;;;;;;;9.60;4.15;;;3.50;99.90;;;4.42;57.16;102019.38;5055568;28;20073;-79
2022/02/28 02:54:28;;;;;;;9.40;4.13;;;3.50;99.90;;;4.43;57.45;102019.06;5055342;28;20025;-79
2022/02/28 02:56:54;;;;;;;8.20;4.15;;;3.60;99.90;;;4.37;57.48;102009.16;5054875;28;20028;-78
2022/02/28 02:59:20;;;;;;;8.85;4.53;;;3.40;99.90;;;4.34;57.26;102011.66;5055571;28;20047;-78
2022/02/28 03:01:48;;;;;;;6.25;4.38;;;3.40;99.90;;;4.34;57.14;102009.72;5054686;28;20039;-78
2022/02/28 03:04:14;;;;;;;8.05;4.18;;;3.40;99.90;;;4.31;57.76;102007.53;5052818;28;20029;-78
2022/02/28 03:06:40;;;;;;;7.32;3.95;;;3.40;99.90;;;4.27;58.20;102020.25;5053109;28;20059;-77
2022/02/28 03:09:15;;;;;;;8.90;4.82;;;3.30;99.90;;;4.32;58.02;102011.13;5055921;28;20021;-78
2022/02/28 03:11:44;;;;;;;9.77;4.80;;;3.30;99.90;;;4.33;58.63;102012.78;5055092;28;20025;-77
2022/02/28 03:14:12;;;;;;;8.82;4.60;;;3.20;99.90;;;4.20;58.59;102017.00;5053462;28;20467;-77
2022/02/28 03:16:39;;;;;;;6.40;4.63;;;3.20;99.90;;;4.01;59.31;102010.41;5054091;28;20451;-80
2022/02/28 03:19:08;;;;;;;10.52;4.97;;;3.00;99.90;;;3.78;60.08;102009.09;5054563;28;20097;-79
2022/02/28 03:21:34;;;;;;;9.50;5.25;;;2.80;99.90;;;3.68;60.80;102012.72;5055938;28;20036;-79
2022/02/28 03:24:00;;;;;;;10.45;5.10;;;2.70;99.90;;;3.51;61.42;102012.16;5055185;28;20535;-76
2022/02/28 03:26:29;;;;;;;9.20;5.05;;;2.50;99.90;;;3.50;61.20;102012.47;5054518;28;20033;-76
2022/02/28 03:28:57;;;;;;;9.63;4.95;;;2.50;99.90;;;3.54;61.08;102000.56;5054429;28;20111;-79
2022/02/28 03:31:24;;;;;;;9.15;5.03;;;2.40;99.90;;;3.41;62.02;102012.19;5055070;28;20033;-77
2022/02/28 03:33:50;;;;;;;9.80;5.00;;;2.40;99.90;;;3.16;63.13;102006.66;5054672;28;20037;-78
2022/02/28 03:36:18;;;;;;;7.68;4.70;;;2.20;99.90;;;3.08;63.76;102001.72;5055353;28;20134;-78
2022/02/28 03:38:44;;;;;;;7.05;4.90;;;2.10;99.90;;;2.85;64.34;102014.09;5055196;28;20581;-78
2022/02/28 03:41:10;;;;;;;9.60;5.00;;;1.90;99.90;;;2.55;65.66;102006.59;5053584;28;20047;-78
2022/02/28 03:43:39;;;;;;;9.27;5.20;;;1.70;99.90;;;2.37;67.01;102000.75;5046514;28;20034;-79
2022/02/28 03:46:04;;;;;;;9.07;5.03;;;1.50;99.90;;;2.26;67.17;102007.31;5035266;28;20038;-77
2022/02/28 03:48:30;;;;;;;8.45;4.97;;;1.40;99.90;;;2.06;68.09;101999.78;5033904;28;20040;-77
2022/02/28 03:50:56;;;;;;;13.35;5.30;;;1.20;99.90;;;2.18;68.25;102000.41;5040268;28;20100;-78
2022/02/28 03:53:22;;;;;;;13.63;5.53;;;1.20;99.90;;;2.15;69.03;102000.94;5054016;28;20037;-79
2022/02/28 03:55:50;;;;;;;9.05;5.03;;;1.20;99.90;;;2.19;68.33;101996.53;5054573;28;20033;-77
2022/02/28 03:58:16;;;;;;;11.13;5.38;;;1.20;99.90;;;2.20;68.87;101998.19;5054195;28;20039;-77
2022/02/28 04:00:45;;;;;;;10.77;5.05;;;1.20;99.90;;;2.09;68.12;102002.81;5054846;28;20068;-77
2022/02/28 04:03:11;;;;;;;9.70;5.38;;;1.20;99.90;;;2.04;69.05;102008.34;5054408;28;20041;-76
2022/02/28 04:05:36;;;;;;;9.65;5.57;;;1.10;99.90;;;1.87;69.36;102002.16;5053276;28;20057;-77
2022/02/28 04:08:03;;;;;;;9.02;5.78;;;1.00;99.90;;;1.92;70.26;101999.47;5055827;28;20033;-78
2022/02/28 04:10:28;;;;;;;9.25;5.45;;;0.90;99.90;;;1.81;70.42;102007.91;5057395;28;20033;-78
2022/02/28 04:12:54;;;;;;;10.50;4.40;;;0.80;99.90;;;1.46;70.60;102003.84;5059074;28;20110;-78
2022/02/28 04:15:20;;;;;;;8.13;4.75;;;0.50;99.90;;;1.28;72.06;102006.19;5058162;28;20040;-77
2022/02/28 04:17:49;;;;;;;8.52;5.03;;;0.40;99.90;;;1.06;72.76;101993.34;5059230;28;20033;-76
2022/02/28 04:20:15;;;;;;;14.50;6.40;;;0.30;99.90;;;0.91;74.69;101995.13;5058981;28;20111;-77
2022/02/28 04:22:41;;;;;;;9.43;5.63;;;0.10;99.90;;;0.83;75.77;101998.38;5058586;28;20448;-78
2022/02/28 04:25:09;;;;;;;14.45;7.82;;;0.10;99.90;;;0.72;77.20;101996.63;5056406;28;20025;-79
2022/02/28 04:27:35;;;;;;;9.30;5.80;;;-0.10;99.90;;;0.66;76.88;102000.41;5058308;28;20039;-78
2022/02/28 04:30:03;;;;;;;12.70;6.95;;;-0.20;99.90;;;0.63;77.42;102003.66;5058389;28;20033;-80
2022/02/28 04:32:32;;;;;;;9.13;5.68;;;-0.20;99.90;;;0.69;78.20;102005.38;5058075;28;20060;-79
2022/02/28 04:34:58;;;;;;;11.20;6.18;;;-0.20;99.90;;;0.66;78.12;102003.16;5057801;28;20043;-78
2022/02/28 04:37:24;;;;;;;12.00;6.18;;;-0.20;99.90;;;0.75;78.75;102009.84;5057069;28;20032;-79
2022/02/28 04:39:50;;;;;;;14.10;6.65;;;-0.20;99.90;;;0.79;79.09;102006.31;5056956;28;20377;-77
2022/02/28 04:42:17;;;;;;;11.35;5.93;;;-0.20;99.90;;;0.77;79.20;102005.72;5055731;28;20057;-76
2022/02/28 04:44:43;;;;;;;15.57;6.75;;;-0.10;99.90;;;0.74;79.75;102005.44;5057613;28;20043;-79
2022/02/28 04:47:09;;;;;;;15.45;6.63;;;-0.20;99.90;;;0.69;80.50;102008.97;5058245;28;20403;-79
2022/02/28 04:49:35;;;;;;;14.52;7.25;;;-0.20;99.90;;;0.48;81.30;101999.66;5056116;28;20025;-78
2022/02/28 04:52:00;;;;;;;17.08;8.85;;;-0.20;99.90;;;0.31;82.02;102007.19;5065377;28;20049;-74
2022/02/28 04:54:29;;;;;;;14.80;6.80;;;-0.40;99.90;;;0.39;83.90;102009.47;5078322;28;20063;-76
2022/02/28 04:56:58;;;;;;;14.05;6.63;;;-0.40;99.90;;;0.33;84.12;102009.66;5075642;28;20041;-75
2022/02/28 04:59:24;;;;;;;16.50;7.95;;;-0.40;99.90;;;0.15;84.35;101996.25;5057701;28;20025;-78
2022/02/28 05:01:51;;;;;;;13.32;6.05;;;-0.50;99.90;;;0.00;84.66;102005.97;5054155;28;20039;-77
2022/02/28 05:04:17;;;;;;;16.40;7.53;;;-0.60;99.90;;;-0.08;85.41;101997.34;5051021;28;20110;-77
2022/02/28 05:06:46;;;;;;;14.85;7.55;;;-0.70;99.90;;;-0.08;86.97;102005.59;5055702;28;20453;-77
2022/02/28 05:09:15;;;;;;;13.85;7.25;;;-0.70;99.90;;;-0.11;87.97;102004.19;5057582;28;20028;-78
2022/02/28 05:11:41;;;;;;;12.52;7.32;;;-0.80;99.90;;;-0.02;88.12;101999.06;5058219;28;20024;-77
2022/02/28 05:14:07;;;;;;;18.27;9.10;;;-0.70;99.90;;;0.05;88.34;101996.97;5057554;28;20442;-78
2022/02/28 05:16:34;;;;;;;18.83;7.30;;;-0.70;99.90;;;0.11;88.37;101993.19;5058848;28;20063;-79
2022/02/28 05:18:59;;;;;;;16.45;6.97;;;-0.60;99.90;;;-0.05;87.91;101989.44;5055955;28;20025;-76
2022/02/28 05:21:25;;;;;;;14.38;6.47;;;-0.80;99.90;;;-0.20;88.25;101988.41;5057125;28;20039;-78
2022/02/28 05:23:51;;;;;;;21.23;8.30;;;-0.90;99.90;;;-0.37;89.40;101993.94;5057486;28;20033;-76
2022/02/28 05:26:17;;;;;;;17.65;7.13;;;-1.00;99.90;;;-0.31;90.14;101986.59;5057445;28;20033;-79
2022/02/28 05:28:43;;;;;;;16.38;7.15;;;-1.00;99.90;;;-0.33;90.13;101999.75;5057292;28;20479;-79
2022/02/28 05:31:09;;;;;;;13.95;7.50;;;-1.00;99.90;;;-0.44;90.26;101996.03;5057130;28;20060;-78
2022/02/28 05:33:36;;;;;;;15.68;7.63;;;-1.10;99.90;;;-0.52;90.84;101992.88;5056182;28;20029;-79
2022/02/28 05:36:03;;;;;;;12.02;6.63;;;-1.20;99.90;;;-0.46;91.15;101992.72;5058142;28;20421;-79
2022/02/28 05:38:29;;;;;;;13.57;6.95;;;-1.20;99.90;;;-0.28;91.07;101995.16;5057169;28;20028;-79
2022/02/28 05:40:54;;;;;;;11.80;6.75;;;-1.10;99.90;;;-0.30;90.38;102002.81;5057551;28;20037;-79
2022/02/28 05:43:27;;;;;;;15.07;6.88;;;-1.20;99.90;;;-0.43;90.17;101989.47;5050299;28;20025;-78
2022/02/28 05:45:54;;;;;;;13.35;6.55;;;-1.20;99.90;;;-0.59;91.60;101998.53;5037220;28;20488;-77
2022/02/28 05:48:20;;;;;;;17.10;6.45;;;-1.30;99.90;;;-0.72;91.36;101993.41;5035603;28;20022;-79
2022/02/28 05:50:48;;;;;;;10.02;5.95;;;-1.40;99.90;;;-0.82;91.80;101988.59;5035775;28;20021;-77
2022/02/28 05:53:17;;;;;;;14.55;6.75;;;-1.50;99.90;;;-0.85;92.61;101983.59;5036792;28;20048;-75
2022/02/28 05:55:43;;;;;;;14.82;7.30;;;-1.50;99.90;;;-0.74;92.48;101990.09;5037652;28;20021;-79
2022/02/28 05:58:10;;;;;;;16.95;6.90;;;-1.50;99.90;;;-0.59;92.71;101990.31;5037082;28;20036;-80
2022/02/28 06:00:36;;;;;;;15.30;6.30;;;-1.40;99.90;;;-0.56;92.01;101995.28;5037074;28;20056;-78
2022/02/28 06:03:03;;;;;;;17.98;6.28;;;-1.40;99.90;;;-0.60;91.53;102000.44;5036885;28;20030;-78
2022/02/28 06:05:32;;;;;;;15.82;7.13;;;-1.40;99.90;;;-0.62;92.32;101999.06;5038587;28;20100;-77
2022/02/28 06:07:58;;;;;;;15.27;7.47;;;-1.50;99.90;;;-0.61;92.00;102001.53;5037955;28;20457;-78
2022/02/28 06:10:26;;;;;;;11.77;6.57;;;-1.50;99.90;;;-0.60;91.84;102002.38;5037592;28;20029;-80
2022/02/28 06:12:52;;;;;;;15.02;6.72;;;-1.50;99.90;;;-0.68;92.33;102006.38;5037456;28;20222;-80
2022/02/28 06:15:21;;;;;;;13.40;6.90;;;-1.50;99.90;;;-0.62;93.09;102005.38;5035983;28;20504;-78
2022/02/28 06:17:47;;;;;;;13.68;5.70;;;-1.40;99.90;;;-0.62;93.01;102016.34;5036999;28;20068;-77
2022/02/28 06:20:13;;;;;;;12.70;6.28;;;-1.50;99.90;;;-0.75;92.57;102019.44;5036832;28;20021;-79
2022/02/28 06:22:38;;;;;;;15.45;7.03;;;-1.50;99.90;;;-0.77;93.34;102020.78;5037677;28;20079;-79
2022/02/28 06:25:05;;;;;;;13.88;6.53;;;-1.60;99.90;;;-0.86;93.16;102022.25;5037517;28;20033;-78
2022/02/28 06:27:34;;;;;;;13.55;6.72;;;-1.60;99.90;;;-0.94;93.01;102018.03;5037360;28;20033;-79
2022/02/28 06:30:00;;;;;;;13.13;7.25;;;-1.70;99.90;;;-1.06;94.13;102020.81;5036243;28;20122;-77
2022/02/28 06:32:26;;;;;;;17.38;6.75;;;-1.80;99.90;;;-0.93;94.91;102019.66;5035098;28;20039;-77
2022/02/28 06:34:55;;;;;;;17.30;7.38;;;-1.70;99.90;;;-0.83;95.35;102024.47;5035604;28;20501;-76
2022/02/28 06:37:22;;;;;;;11.57;6.53;;;-1.60;99.90;;;-0.85;95.39;102024.75;5035982;28;20030;-78
2022/02/28 06:39:47;;;;;;;12.13;6.65;;;-1.70;99.90;;;-0.89;95.73;102026.31;5034508;28;20025;-78
2022/02/28 06:42:15;;;;;;;15.30;7.00;;;-1.60;99.90;;;-0.87;95.17;102035.16;5035183;28;20044;-78
2022/02/28 06:44:47;;;;;;;12.60;6.53;;;-1.60;99.90;;;-0.80;95.53;102041.28;5051140;28;20033;-77
2022/02/28 06:47:17;;;;;;;17.92;8.63;;;-1.60;99.90;;;-0.57;95.82;102040.28;5054866;28;20021;-79
2022/02/28 06:49:47;;;;;;;16.50;8.23;;;-1.50;99.90;;;-0.21;95.46;102047.97;5054797;28;20033;-79
2022/02/28 06:52:13;;;;;;;16.98;6.45;;;-1.20;99.90;;;-0.07;94.12;102046.53;5053206;28;20029;-77
2022/02/28 06:54:41;;;;;;;12.63;6.68;;;-1.00;99.90;;;0.13;93.72;102051.44;5054284;28;20028;-78
2022/02/28 06:57:12;;;;;;;17.10;8.98;;;-0.90;99.90;;;0.46;92.10;102050.50;5053807;28;20365;-78
2022/02/28 06:59:38;;;;;;;20.65;8.18;;;-0.60;99.90;;;0.66;91.14;102055.41;5053238;28;20025;-77
2022/02/28 07:02:04;;;;;;;24.10;10.57;;;-0.40;99.90;;;0.86;89.32;102053.72;5052943;28;20479;-77
2022/02/28 07:04:33;;;;;;;15.32;6.85;;;-0.30;99.90;;;0.97;87.65;102057.38;5053876;28;20040;-80
2022/02/28 07:06:59;;;;;;;15.90;7.43;;;-0.10;99.90;;;1.10;87.61;102054.19;5052806;28;20047;-77
2022/02/28 07:09:29;;;;;;;15.05;9.00;;;0.10;99.90;;;1.32;86.69;102056.84;5053645;28;20028;-78
2022/02/28 07:11:55;;;;;;;15.38;7.88;;;0.30;99.90;;;1.60;85.44;102056.56;5055599;28;20017;-78
2022/02/28 07:14:25;;;;;;;17.67;8.63;;;0.50;99.90;;;1.90;83.99;102051.22;5054114;28;20065;-78
2022/02/28 07:16:53;;;;;;;14.32;7.05;;;0.80;99.90;;;2.12;82.89;102062.09;5053798;28;20025;-78
2022/02/28 07:19:19;;;;;;;14.63;7.47;;;1.00;99.90;;;2.30;81.24;102067.16;5044088;28;20116;-78
2022/02/28 07:21:45;;;;;;;23.60;8.30;;;1.10;99.90;;;2.54;79.93;102068.34;5034530;28;20575;-78
2022/02/28 07:24:14;;;;;;;14.30;7.18;;;1.30;99.90;;;2.80;80.00;102061.00;5033493;28;20072;-77
2022/02/28 07:26:42;;;;;;;11.45;7.18;;;1.60;99.90;;;2.95;78.23;102057.44;5033978;28;20025;-78
2022/02/28 07:29:08;;;;;;;18.75;9.18;;;1.70;99.90;;;3.13;76.69;102054.16;5034229;28;20025;-77
2022/02/28 07:31:34;;;;;;;22.58;9.02;;;1.90;99.90;;;3.51;76.36;102067.41;5041993;28;20064;-77
2022/02/28 07:34:00;;;;;;;18.52;8.68;;;2.30;99.90;;;3.88;75.63;102069.06;5043481;28;20036;-76
2022/02/28 07:36:29;;;;;;;14.80;8.27;;;2.60;99.90;;;4.28;74.43;102068.94;5037546;28;20060;-76
2022/02/28 07:39:04;;;;;;;17.98;8.35;;;2.90;99.90;;;4.65;73.10;102066.59;5036540;28;20397;-77
2022/02/28 07:41:30;;;;;;;15.25;6.97;;;3.30;99.90;;;5.07;71.79;102068.81;5037733;28;20037;-78
2022/02/28 07:44:00;;;;;;;13.98;6.95;;;3.60;99.90;;;5.38;70.00;102074.16;5048023;28;20575;-76
2022/02/28 07:46:28;;;;;;;11.57;7.10;;;3.90;99.90;;;5.54;68.60;102070.13;5064010;28;20021;-78
2022/02/28 07:48:57;;;;;;;16.65;7.90;;;4.10;99.90;;;5.62;67.24;102073.09;5061835;28;20029;-79
2022/02/28 07:51:23;;;;;;;15.15;7.93;;;4.20;99.90;;;5.82;66.46;102063.78;5060653;28;20084;-79
2022/02/28 07:53:49;;;;;;;13.30;8.60;;;4.40;99.90;;;6.04;66.33;102074.38;5065624;28;20065;-76
2022/02/28 07:56:20;;;;;;;16.23;8.10;;;4.60;99.90;;;6.25;65.53;102075.84;5069070;28;20035;-77
2022/02/28 07:58:49;;;;;;;21.10;9.02;;;4.80;99.90;;;6.53;64.76;102074.94;5066837;28;20033;-75
2022/02/28 08:01:18;;;;;;;21.45;9.57;;;5.10;99.90;;;6.68;64.23;102074.75;5064639;28;20029;-76
2022/02/28 08:03:45;;;;;;;25.38;12.32;;;5.20;99.90;;;6.93;63.03;102068.03;5066248;28;20143;-76
2022/02/28 08:06:14;;;;;;;25.40;12.73;;;5.40;99.90;;;6.97;60.31;102062.72;5065151;28;20116;-77
2022/02/28 08:09:44;;;;;;;23.38;11.40;;;5.50;99.90;;;7.24;59.71;102063.66;5065966;28;20052;-76
2022/02/28 08:14:16;;;;;;;18.05;10.02;;;5.70;99.90;;;-144.05;100.00;68007.91;5064429;28;20403;-76
2022/02/28 08:18:46;;;;;;;19.88;8.90;;;6.00;99.90;;;-144.05;100.00;68007.91;5063591;28;20054;-77
2022/02/28 08:23:14;;;;;;;22.83;10.13;;;6.50;99.90;;;-144.05;100.00;68007.91;5060734;28;20035;-76
2022/02/28 08:27:57;;;;;;;12.30;6.72;;;6.80;99.90;;;-144.05;100.00;68007.91;5059869;28;20038;-75
2022/02/28 08:32:31;;;;;;;13.73;6.15;;;7.40;90.40;;;-144.05;100.00;68007.91;5058286;28;20071;-80
2022/02/28 08:36:58;;;;;;;10.18;5.53;;;8.00;79.20;;;-144.05;100.00;68007.91;5055237;28;20075;-76
2022/02/28 08:41:31;;;;;;;10.25;5.82;;;8.30;75.60;;;-144.05;100.00;68007.91;5061792;28;20060;-77
2022/02/28 08:45:58;;;;;;;7.53;5.55;;;8.60;72.30;;;-144.05;100.00;68007.91;5046401;28;20040;-76
2022/02/28 08:50:26;;;;;;;11.52;5.88;;;8.60;70.80;;;-144.05;100.00;68007.91;5037347;28;20042;-78
2022/02/28 08:54:57;;;;;;;10.25;5.35;;;9.00;69.90;;;-144.05;100.00;68007.91;5037247;28;20057;-77
2022/02/28 08:59:24;;;;;;;8.80;5.53;;;9.40;68.10;;;-144.05;100.00;68007.91;5035447;28;20064;-77
2022/02/28 09:03:53;;;;;;;11.63;5.55;;;9.90;66.10;;;-144.05;100.00;68007.91;5039930;28;20030;-79
2022/02/28 09:08:23;;;;;;;9.00;5.57;;;10.00;64.90;;;-144.05;100.00;68007.91;5055119;28;20028;-77
2022/02/28 09:12:54;;;;;;;10.32;5.82;;;10.40;62.50;;;-144.05;100.00;68007.91;5038248;28;20392;-77
2022/02/28 09:17:24;;;;;;;10.93;5.95;;;10.40;62.50;;;-144.05;100.00;68007.91;5036467;28;20087;-75
2022/02/28 09:21:53;;;;;;;8.27;5.35;;;10.50;61.90;;;-144.05;100.00;68007.91;5034713;28;20029;-76
2022/02/28 09:26:27;;;;;;;7.72;5.07;;;10.90;61.10;;;-144.05;100.00;68007.91;5034516;28;20080;-78
2022/02/28 09:31:00;;;;;;;9.25;5.65;;;11.10;59.40;;;-144.05;100.00;68007.91;5034356;28;20057;-77
2022/02/28 09:35:34;;;;;;;11.65;6.82;;;11.30;58.60;;;-144.05;100.00;68007.91;5034679;28;20477;-77
2022/02/28 09:40:05;;;;;;;12.68;6.57;;;11.30;59.90;;;-144.05;100.00;68007.91;5035343;28;20048;-76
2022/02/28 09:44:37;;;;;;;10.27;6.00;;;11.00;59.10;;;-144.05;100.00;68007.91;5035038;28;20034;-76
2022/02/28 09:49:20;;;;;;;10.75;5.60;;;11.10;60.10;;;-144.05;100.00;68007.91;5054052;28;20112;-76
2022/02/28 09:53:50;;;;;;;9.43;5.38;;;11.50;59.00;;;-144.05;100.00;68007.91;5054858;28;20090;-77
2022/02/28 09:58:22;;;;;;;8.85;4.93;;;11.70;55.20;;;-144.05;100.00;68007.91;5055961;28;20036;-76
2022/02/28 10:02:50;;;;;;;8.65;4.88;;;11.80;54.30;;;-144.05;100.00;68007.91;5054645;28;20116;-76
2022/02/28 10:07:19;;;;;;;8.48;4.47;;;11.70;55.00;;;-144.05;100.00;68007.91;5055458;28;20365;-76
2022/02/28 10:12:31;;;;;;;6.35;4.50;;;11.80;56.00;;;-144.05;100.00;68007.91;5055508;28;20082;-79
2022/02/28 10:17:16;;;;;;;7.68;4.60;;;11.80;53.00;;;-144.05;100.00;68007.91;5055120;28;20039;-76
2022/02/28 10:21:49;;;;;;;9.23;4.93;;;12.10;53.10;;;-144.05;100.00;68007.91;5053758;28;20032;-76
2022/02/28 10:26:41;;;;;;;7.75;4.55;;;11.40;52.10;;;-144.05;100.00;68007.91;5055377;28;20152;-75
2022/02/28 10:31:28;;;;;;;7.00;3.97;;;11.80;51.50;;;-144.05;100.00;68007.91;5055367;28;20094;-78
2022/02/28 10:36:10;;;;;;;9.00;4.38;;;11.80;51.80;;;-144.05;100.00;68007.91;5056829;28;20043;-76
2022/02/28 10:40:59;;;;;;;7.97;4.53;;;11.60;50.30;;;-144.05;100.00;68007.91;5054953;28;20032;-75
2022/02/28 10:45:32;;;;;;;7.18;3.95;;;11.90;52.30;;;-144.05;100.00;68007.91;5047992;28;20370;-79
2022/02/28 10:50:20;;;;;;;8.18;4.43;;;12.40;50.70;;;-144.05;100.00;68007.91;5035045;28;20033;-77
2022/02/28 10:55:10;;;;;;;9.02;4.38;;;12.50;48.30;;;-144.05;100.00;68007.91;5033299;28;20033;-78
2022/02/28 10:59:41;;;;;;;7.50;3.88;;;12.50;49.60;;;-144.05;100.00;68007.91;5033643;28;20569;-78
2022/02/28 11:04:11;;;;;;;8.98;4.05;;;12.60;48.50;;;-144.05;100.00;68007.91;5034478;28;20567;-78
2022/02/28 11:08:46;;;;;;;6.90;4.85;;;12.40;48.80;;;-144.05;100.00;68007.91;5034629;28;20040;-75
2022/02/28 11:13:20;;;;;;;7.18;4.03;;;12.60;48.10;;;-144.05;100.00;68007.91;5034986;28;20025;-76
2022/02/28 11:17:48;;;;;;;5.47;3.80;;;12.80;48.60;;;-144.05;100.00;68007.91;5030646;22;20583;-75
2022/02/28 11:22:20;;;;;;;10.20;4.20;;;12.80;48.50;;;-144.05;100.00;68007.91;5013179;28;20068;-77
2022/02/28 11:26:48;;;;;;;7.30;4.32;;;12.90;47.50;;;-144.05;100.00;68007.91;5011202;28;20030;-76
2022/02/28 11:31:19;;;;;;;5.28;4.05;;;13.00;48.10;;;-144.05;100.00;68007.91;5012203;28;20022;-76
2022/02/28 11:36:20;;;;;;;7.07;4.13;;;13.00;49.30;;;-144.05;100.00;68007.91;5012973;28;20033;-76
2022/02/28 11:40:48;;;;;;;6.18;3.78;;;12.90;47.30;;;-144.05;100.00;68007.91;5012504;28;20026;-75
2022/02/28 11:45:18;;;;;;;13.05;5.10;;;13.10;48.10;;;-144.05;100.00;68007.91;5017223;28;20032;-77
2022/02/28 11:50:13;;;;;;;4.70;3.65;;;13.30;47.10;;;-144.05;100.00;68007.91;5047198;28;20044;-76
2022/02/28 11:54:45;;;;;;;5.90;3.72;;;13.50;47.20;;;-144.05;100.00;68007.91;5047534;28;20388;-78
2022/02/28 11:59:19;;;;;;;4.72;3.42;;;13.60;45.50;;;-144.05;100.00;68007.91;5032350;28;20477;-76
2022/02/28 12:04:05;;;;;;;7.10;4.05;;;13.60;46.30;;;-144.05;100.00;68007.91;5031985;28;20116;-74
2022/02/28 12:08:55;;;;;;;5.03;3.08;;;13.70;45.00;;;-144.05;100.00;68007.91;5047464;28;20072;-73